ADDS METAR Data INFO
IDs: Format: Raw Decoded Include TAF

Data at: 1413 UTC 12 Dec 2017

KCGC 121355Z AUTO 00000KT 10SM SCT038 12/10 A3004 RMK AO2
KCGC 121315Z AUTO 00000KT 10SM SCT036 09/08 A3004 RMK AO2
KCGC 121255Z AUTO 00000KT 10SM BKN036 07/07 A3004 RMK AO2
KCGC 121235Z AUTO 00000KT 10SM CLR 06/06 A3004 RMK AO2
KCGC 121215Z AUTO 00000KT 10SM SCT037 06/06 A3004 RMK AO2
KCGC 121155Z AUTO 00000KT 10SM SCT037 06/05 A3004 RMK AO2
KCGC 121135Z AUTO 00000KT 10SM SCT037 05/05 A3004 RMK AO2
KCGC 121115Z AUTO 00000KT 10SM BKN037 05/05 A3004 RMK AO2
KCGC 121055Z AUTO 00000KT 10SM BKN035 05/05 A3004 RMK AO2
KCGC 121035Z AUTO 00000KT 10SM OVC035 05/04 A3005 RMK AO2
KCGC 121015Z AUTO 00000KT 10SM BKN035 04/03 A3005 RMK AO2
KCGC 120955Z AUTO 00000KT 10SM SCT035 03/03 A3006 RMK AO2
KCGC 120935Z AUTO 00000KT 10SM CLR 05/04 A3006 RMK AO2
KCGC 120915Z AUTO 00000KT 10SM CLR 03/03 A3006 RMK AO2
KCGC 120855Z AUTO 00000KT 10SM CLR 03/03 A3006 RMK AO2
KCGC 120835Z AUTO 00000KT 10SM CLR 03/03 A3006 RMK AO2
KCGC 120815Z AUTO 00000KT 10SM CLR 03/03 A3007 RMK AO2
KCGC 120755Z AUTO 00000KT 10SM CLR 03/02 A3008 RMK AO2
KCGC 120735Z AUTO 00000KT 10SM CLR 03/03 A3009 RMK AO2
KCGC 120715Z AUTO 00000KT 10SM CLR 03/02 A3009 RMK AO2
KCGC 120655Z AUTO 00000KT 10SM CLR 03/02 A3009 RMK AO2
KCGC 120635Z AUTO 00000KT 10SM CLR 03/02 A3010 RMK AO2
KCGC 120615Z AUTO 00000KT 10SM CLR 03/02 A3011 RMK AO2
KCGC 120555Z AUTO 00000KT 10SM CLR 03/02 A3011 RMK AO2
KCGC 120535Z AUTO 00000KT 10SM CLR 03/02 A3012 RMK AO2
KCGC 120515Z AUTO 00000KT 10SM CLR 03/02 A3013 RMK AO2
KCGC 120455Z AUTO 00000KT 10SM CLR 03/02 A3014 RMK AO2
KCGC 120435Z AUTO 00000KT 7SM CLR 03/02 A3015 RMK AO2
KCGC 120415Z AUTO 00000KT 7SM CLR 03/02 A3016 RMK AO2
KCGC 120355Z AUTO 00000KT 10SM CLR 03/02 A3016 RMK AO2
KCGC 120335Z AUTO 00000KT 10SM CLR 03/02 A3017 RMK AO2
KCGC 120315Z AUTO 00000KT 10SM CLR 03/02 A3017 RMK AO2
KCGC 120255Z AUTO 00000KT 10SM CLR 03/02 A3017 RMK AO2
KCGC 120235Z AUTO 00000KT 10SM CLR 03/02 A3018 RMK AO2
KCGC 120215Z AUTO 00000KT 10SM CLR 03/02 A3018 RMK AO2
KCGC 120155Z AUTO 00000KT 10SM CLR 03/02 A3018 RMK AO2
KCGC 120135Z AUTO 00000KT 10SM CLR 04/02 A3018 RMK AO2
KCGC 120115Z AUTO 00000KT 10SM CLR 04/03 A3018 RMK AO2
KCGC 120055Z AUTO 00000KT 10SM CLR 05/03 A3019 RMK AO2
KCGC 120035Z AUTO 00000KT 10SM CLR 05/03 A3019 RMK AO2
KCGC 120015Z AUTO 00000KT 10SM CLR 05/03 A3019 RMK AO2
KCGC 112355Z AUTO 00000KT 10SM CLR 06/03 A3019 RMK AO2
KCGC 112335Z AUTO 00000KT 10SM CLR 06/03 A3019 RMK AO2
KCGC 112315Z AUTO 00000KT 10SM CLR 07/03 A3019 RMK AO2
KCGC 112255Z AUTO 00000KT 10SM CLR 08/03 A3019 RMK AO2
KCGC 112235Z AUTO 00000KT 10SM CLR 10/03 A3019 RMK AO2
KCGC 112215Z AUTO 27003KT 10SM CLR 12/02 A3019 RMK AO2
KCGC 112155Z AUTO 27005KT 10SM CLR 12/02 A3019 RMK AO2
KCGC 112135Z AUTO 28008KT 10SM CLR 13/02 A3019 RMK AO2
KCGC 112115Z AUTO 29005KT 10SM CLR 13/01 A3019 RMK AO2
KCGC 112055Z AUTO 29007KT 10SM CLR 13/00 A3019 RMK AO2
KCGC 112035Z AUTO 29005KT 10SM CLR 14/M05 A3019 RMK AO2
KCGC 112015Z AUTO 27010KT 10SM CLR 15/M05 A3020 RMK AO2
KCGC 111955Z AUTO 27008KT 10SM CLR 15/M05 A3020 RMK AO2
KCGC 111935Z AUTO 26008KT 10SM CLR 15/M05 A3020 RMK AO2
KCGC 111915Z AUTO 26008KT 10SM CLR 15/M05 A3021 RMK AO2
KCGC 111855Z AUTO 27008KT 10SM CLR 15/M03 A3021 RMK AO2
KCGC 111835Z AUTO 26006KT 10SM CLR 15/00 A3021 RMK AO2
KCGC 111815Z AUTO 32004KT 10SM CLR 15/M01 A3022 RMK AO2
KCGC 111755Z AUTO 00000KT 10SM CLR 15/00 A3023 RMK AO2
KCGC 111735Z AUTO 30003KT 10SM CLR 15/M01 A3024 RMK AO2
KCGC 111715Z AUTO 28006KT 10SM CLR 14/M02 A3025 RMK AO2
KCGC 111655Z AUTO 24003KT 10SM CLR 13/M01 A3027 RMK AO2
KCGC 111635Z AUTO 00000KT 10SM CLR 13/M01 A3029 RMK AO2
KCGC 111615Z AUTO 00000KT 10SM CLR 13/00 A3030 RMK AO2
KCGC 111555Z AUTO 36003KT 10SM CLR 12/00 A3030 RMK AO2
KCGC 111535Z AUTO 34005KT 10SM CLR 11/00 A3031 RMK AO2
KCGC 111515Z AUTO 36003KT 10SM CLR 11/00 A3032 RMK AO2
KCGC 111455Z AUTO 35004KT 10SM CLR 10/00 A3032 RMK AO2
KCGC 111435Z AUTO 36003KT 10SM CLR 08/01 A3033 RMK AO2
KCGC 111415Z AUTO 36003KT 10SM CLR 07/02 A3033 RMK AO2
KCGC 111355Z AUTO 00000KT 10SM CLR 05/02 A3032 RMK AO2
KCGC 111335Z AUTO 00000KT 10SM CLR 03/01 A3032 RMK AO2
KCGC 111315Z AUTO 00000KT 10SM CLR 01/00 A3032 RMK AO2
KCGC 111255Z AUTO 00000KT 10SM CLR 00/00 A3032 RMK AO2
KCGC 111235Z AUTO 00000KT 10SM CLR 00/M01 A3032 RMK AO2
KCGC 111215Z AUTO 00000KT 10SM CLR 00/M01 A3032 RMK AO2
KCGC 111155Z AUTO 00000KT 10SM CLR 00/M01 A3031 RMK AO2
KCGC 111135Z AUTO 00000KT 10SM CLR M01/M01 A3031 RMK AO2
KCGC 111115Z AUTO 00000KT 10SM CLR 00/M01 A3031 RMK AO2
KCGC 111055Z AUTO 00000KT 10SM CLR 00/M01 A3031 RMK AO2
KCGC 111035Z AUTO 00000KT 10SM CLR 00/00 A3031 RMK AO2
KCGC 111015Z AUTO 00000KT 10SM CLR 00/00 A3031 RMK AO2
KCGC 110955Z AUTO 00000KT 10SM CLR 00/00 A3031 RMK AO2
KCGC 110935Z AUTO 00000KT 10SM CLR 00/00 A3031 RMK AO2
KCGC 110915Z AUTO 00000KT 10SM CLR 00/00 A3031 RMK AO2
KCGC 110855Z AUTO 00000KT 10SM CLR 00/00 A3031 RMK AO2
KCGC 110835Z AUTO 00000KT 10SM CLR 00/00 A3030 RMK AO2
KCGC 110815Z AUTO 00000KT 10SM CLR 00/00 A3030 RMK AO2
KCGC 110755Z AUTO 00000KT 10SM CLR 00/00 A3030 RMK AO2
KCGC 110735Z AUTO 00000KT 10SM CLR 00/00 A3030 RMK AO2
KCGC 110715Z AUTO 00000KT 7SM CLR 00/00 A3030 RMK AO2
KCGC 110655Z AUTO 00000KT 10SM CLR 00/00 A3030 RMK AO2
KCGC 110635Z AUTO 00000KT 10SM CLR 00/00 A3031 RMK AO2
KCGC 110615Z AUTO 00000KT 7SM CLR 00/00 A3032 RMK AO2
KCGC 110555Z AUTO 00000KT 10SM CLR 01/00 A3032 RMK AO2
KCGC 110535Z AUTO 00000KT 10SM CLR 00/00 A3032 RMK AO2
KCGC 110515Z AUTO 00000KT 10SM CLR 01/00 A3032 RMK AO2
KCGC 110455Z AUTO 00000KT 10SM CLR 01/00 A3032 RMK AO2
KCGC 110435Z AUTO 00000KT 10SM CLR 01/00 A3033 RMK AO2
KCGC 110415Z AUTO 00000KT 10SM CLR 01/00 A3033 RMK AO2
KCGC 110355Z AUTO 00000KT 10SM CLR 01/01 A3034 RMK AO2
KCGC 110335Z AUTO 00000KT 10SM CLR 01/01 A3034 RMK AO2
KCGC 110315Z AUTO 00000KT 10SM CLR 02/01 A3033 RMK AO2
KCGC 110255Z AUTO 00000KT 10SM CLR 02/01 A3033 RMK AO2
KCGC 110235Z AUTO 00000KT 10SM CLR 01/01 A3033 RMK AO2
KCGC 110215Z AUTO 00000KT 10SM CLR 01/01 A3032 RMK AO2